Time;durP1;ratioP1;P1;durP2;ratioP2;P2;SDS_P1;SDS_P2;PMS_P1;PMS_P2;Temp;Humidity;BMP_temperature;BMP_pressure;BME280_temperature;BME280_humidity;BME280_pressure;Samples;Min_cycle;Max_cycle;Signal;HPM_P1;HPM_P2
2024/04/20 00:00:55;;;;;;;;;;;;;;;20.31;35.00;101734.69;4571545;25;19931;-69
2024/04/20 00:02:57;;;;;;;;;;;;;;;20.32;35.16;101732.88;4572379;26;19931;-69
2024/04/20 00:04:59;;;;;;;;;;;;;;;20.33;34.37;101738.13;4572226;25;19935;-69
2024/04/20 00:07:02;;;;;;;;;;;;;;;20.36;35.13;101729.91;4572577;25;19938;-69
2024/04/20 00:09:04;;;;;;;;;;;;;;;20.36;34.47;101729.06;4572387;26;20344;-69
2024/04/20 00:11:08;;;;;;;;;;;;;;;20.35;34.63;101738.91;4569937;26;20437;-68
2024/04/20 00:13:11;;;;;;;;;;;;;;;20.35;34.67;101741.56;4572589;25;20291;-69
2024/04/20 00:15:13;;;;;;;;;;;;;;;20.35;34.29;101740.69;4571928;26;19931;-68
2024/04/20 00:17:15;;;;;;;;;;;;;;;20.32;34.90;101741.75;4572405;25;19931;-67
2024/04/20 00:19:18;;;;;;;;;;;;;;;20.29;34.40;101739.25;4572370;25;20293;-69
2024/04/20 00:21:21;;;;;;;;;;;;;;;20.27;34.79;101741.16;4571539;25;19999;-70
2024/04/20 00:23:23;;;;;;;;;;;;;;;20.26;34.85;101744.78;4571579;25;19943;-68
2024/04/20 00:25:25;;;;;;;;;;;;;;;20.25;34.65;101743.91;4571783;26;19935;-69
2024/04/20 00:27:28;;;;;;;;;;;;;;;20.25;34.09;101746.56;4548777;26;19983;-69
2024/04/20 00:29:30;;;;;;;;;;;;;;;20.25;34.81;101745.72;4572008;26;20372;-68
2024/04/20 00:31:32;;;;;;;;;;;;;;;20.25;34.73;101749.25;4569732;26;20358;-68
2024/04/20 00:33:35;;;;;;;;;;;;;;;20.24;34.21;101750.22;4572030;25;20308;-69
2024/04/20 00:35:40;;;;;;;;;;;;;;;20.24;33.79;101744.88;4571813;25;19938;-68
2024/04/20 00:37:42;;;;;;;;;;;;;;;20.24;34.62;101746.69;4571345;25;19939;-68
2024/04/20 00:39:44;;;;;;;;;;;;;;;20.24;34.26;101746.69;4571835;26;19942;-69
2024/04/20 00:41:53;;;;;;;;;;;;;;;20.23;34.04;101743.16;4571691;25;19944;-68
2024/04/20 00:43:55;;;;;;;;;;;;;;;20.22;34.58;101746.78;4571358;25;19935;-69
2024/04/20 00:45:58;;;;;;;;;;;;;;;20.20;34.38;101747.84;4571647;25;19944;-69
2024/04/20 00:48:01;;;;;;;;;;;;;;;20.21;33.91;101752.22;4571629;25;19934;-69
2024/04/20 00:50:04;;;;;;;;;;;;;;;20.21;34.14;101753.06;4571857;25;19927;-68
2024/04/20 00:52:07;;;;;;;;;;;;;;;20.22;34.81;101749.44;4570973;25;19938;-68
2024/04/20 00:54:13;;;;;;;;;;;;;;;20.22;34.25;101749.44;4571847;25;20275;-68
2024/04/20 00:56:15;;;;;;;;;;;;;;;20.21;33.93;101752.22;4571567;25;20334;-69
2024/04/20 00:58:19;;;;;;;;;;;;;;;20.22;34.34;101748.56;4571763;25;19943;-69
2024/04/20 01:00:21;;;;;;;;;;;;;;;20.23;33.89;101747.63;4571604;25;19932;-69
2024/04/20 01:02:23;;;;;;;;;;;;;;;20.21;34.15;101750.41;4571370;25;19943;-69
2024/04/20 01:04:25;;;;;;;;;;;;;;;20.21;34.08;101749.56;4571712;25;19931;-69
2024/04/20 01:06:27;;;;;;;;;;;;;;;20.17;34.13;101756.00;4571079;25;19938;-69
2024/04/20 01:08:30;;;;;;;;;;;;;;;20.15;34.27;101755.25;4571417;25;20373;-69
2024/04/20 01:10:32;;;;;;;;;;;;;;;20.16;34.31;101754.28;4571746;25;20350;-69
2024/04/20 01:12:35;;;;;;;;;;;;;;;20.14;33.99;101754.38;4571136;25;19927;-69
2024/04/20 01:14:40;;;;;;;;;;;;;;;20.11;33.87;101765.28;4571722;25;19947;-69
2024/04/20 01:16:42;;;;;;;;;;;;;;;20.10;34.13;101764.38;4571333;25;19931;-69
2024/04/20 01:18:44;;;;;;;;;;;;;;;20.11;33.93;101759.94;4564579;26;19931;-70
2024/04/20 01:20:47;;;;;;;;;;;;;;;20.11;33.54;101758.09;4570981;25;19942;-69
2024/04/20 01:22:49;;;;;;;;;;;;;;;20.11;34.18;101763.44;4576737;25;19938;-69
2024/04/20 01:24:54;;;;;;;;;;;;;;;20.10;33.25;101760.88;4571501;25;19935;-69
2024/04/20 01:26:57;;;;;;;;;;;;;;;20.10;33.81;101758.19;4571263;25;19935;-69
2024/04/20 01:28:59;;;;;;;;;;;;;;;20.07;33.64;101755.69;4571112;25;20348;-70
2024/04/20 01:31:01;;;;;;;;;;;;;;;20.06;33.19;101757.53;4571298;25;19931;-70
2024/04/20 01:33:04;;;;;;;;;;;;;;;20.06;34.00;101762.00;4571046;25;19931;-69
2024/04/20 01:35:06;;;;;;;;;;;;;;;20.04;33.35;101763.91;4570574;26;19935;-69
2024/04/20 01:37:08;;;;;;;;;;;;;;;20.01;33.35;101762.25;4571227;25;20335;-69
2024/04/20 01:39:10;;;;;;;;;;;;;;;20.02;33.98;101755.97;4570969;26;19938;-70
2024/04/20 01:41:13;;;;;;;;;;;;;;;20.01;33.95;101764.06;4571058;25;19931;-70
2024/04/20 01:43:15;;;;;;;;;;;;;;;20.02;34.10;101760.47;4570693;26;19935;-70
2024/04/20 01:45:18;;;;;;;;;;;;;;;20.03;33.39;101768.38;4570829;26;19939;-69
2024/04/20 01:47:25;;;;;;;;;;;;;;;20.00;33.80;101771.25;4570987;25;20636;-69
2024/04/20 01:49:28;;;;;;;;;;;;;;;20.01;33.25;101770.25;4570233;25;19935;-70
2024/04/20 01:51:30;;;;;;;;;;;;;;;19.98;33.66;101770.47;4570656;25;19943;-68
2024/04/20 01:53:32;;;;;;;;;;;;;;;19.99;33.09;101772.19;4570313;26;19935;-70
2024/04/20 01:55:34;;;;;;;;;;;;;;;20.00;32.80;101770.38;4571053;26;20417;-69
2024/04/20 01:57:36;;;;;;;;;;;;;;;19.98;32.88;101772.25;4573701;26;19931;-69
2024/04/20 01:59:39;;;;;;;;;;;;;;;19.95;33.38;101778.63;4573559;25;19938;-69
2024/04/20 02:01:44;;;;;;;;;;;;;;;19.91;33.24;101775.28;4573825;25;19939;-69
2024/04/20 02:03:46;;;;;;;;;;;;;;;19.93;33.84;101777.88;4573066;25;19935;-69
2024/04/20 02:05:48;;;;;;;;;;;;;;;19.92;33.84;101782.34;4573653;26;19942;-69
2024/04/20 02:07:52;;;;;;;;;;;;;;;19.93;33.51;101781.41;4573751;26;19931;-69
2024/04/20 02:09:54;;;;;;;;;;;;;;;19.93;33.34;101781.41;4573565;25;20353;-69
2024/04/20 02:11:56;;;;;;;;;;;;;;;19.94;33.75;101780.47;4573520;26;19935;-69
2024/04/20 02:13:58;;;;;;;;;;;;;;;19.95;33.63;101783.97;4573695;26;20354;-68
2024/04/20 02:16:01;;;;;;;;;;;;;;;19.93;33.05;101784.06;4573856;25;19942;-69
2024/04/20 02:18:03;;;;;;;;;;;;;;;19.93;33.59;101781.41;4573348;25;19995;-68
2024/04/20 02:20:06;;;;;;;;;;;;;;;19.91;32.96;101791.31;4573355;26;20294;-68
2024/04/20 02:22:08;;;;;;;;;;;;;;;19.91;33.20;101785.97;4573516;26;19935;-68
2024/04/20 02:24:11;;;;;;;;;;;;;;;19.90;32.72;101791.41;4573134;25;20058;-68
2024/04/20 02:26:13;;;;;;;;;;;;;;;19.88;33.45;101798.63;4573634;25;19939;-69
2024/04/20 02:28:15;;;;;;;;;;;;;;;19.85;33.25;101804.16;4573924;25;20290;-69
2024/04/20 02:30:18;;;;;;;;;;;;;;;19.85;32.91;101799.66;4573093;26;19935;-70
2024/04/20 02:32:20;;;;;;;;;;;;;;;19.85;33.41;101802.34;4572811;26;19935;-69
2024/04/20 02:34:23;;;;;;;;;;;;;;;19.86;32.85;101801.41;4573333;26;19953;-70
2024/04/20 02:36:25;;;;;;;;;;;;;;;19.86;33.44;101798.72;4573436;25;19935;-69
2024/04/20 02:38:28;;;;;;;;;;;;;;;19.88;33.24;101798.63;4571590;26;19935;-69
2024/04/20 02:40:30;;;;;;;;;;;;;;;19.86;32.79;101795.22;4572957;26;19935;-69
2024/04/20 02:42:32;;;;;;;;;;;;;;;19.84;32.96;101795.28;4573422;25;19935;-70
2024/04/20 02:44:34;;;;;;;;;;;;;;;19.83;33.05;101801.56;4573338;25;20286;-69
2024/04/20 02:46:37;;;;;;;;;;;;;;;19.82;33.45;101799.84;4572917;26;19945;-69
2024/04/20 02:48:39;;;;;;;;;;;;;;;19.82;33.13;101793.63;4573473;26;19928;-69
2024/04/20 02:50:41;;;;;;;;;;;;;;;19.80;32.89;101799.06;4573153;25;19942;-69
2024/04/20 02:52:44;;;;;;;;;;;;;;;19.79;33.21;101806.22;4573288;25;19943;-69
2024/04/20 02:54:46;;;;;;;;;;;;;;;19.79;32.43;101808.88;4573404;25;20277;-68
2024/04/20 02:56:48;;;;;;;;;;;;;;;19.80;33.42;101815.06;4573094;25;19947;-68
2024/04/20 02:58:50;;;;;;;;;;;;;;;19.80;33.34;101807.06;4542888;26;20060;-69
2024/04/20 03:01:00;;;;;;;;;;;;;;;19.80;33.38;101817.75;4556113;26;19943;-69
2024/04/20 03:03:02;;;;;;;;;;;;;;;19.80;33.26;101813.25;4572742;25;20054;-69
2024/04/20 03:05:05;;;;;;;;;;;;;;;19.82;32.85;101812.31;4571467;25;20035;-69
2024/04/20 03:07:07;;;;;;;;;;;;;;;19.79;32.28;101811.56;4572541;26;19999;-69
2024/04/20 03:09:10;;;;;;;;;;;;;;;19.76;33.12;101809.03;4573080;26;19937;-68
2024/04/20 03:11:12;;;;;;;;;;;;;;;19.77;32.24;101808.09;4572870;25;19956;-67
2024/04/20 03:13:14;;;;;;;;;;;;;;;19.76;32.30;101816.19;4572555;26;20000;-68
2024/04/20 03:15:17;;;;;;;;;;;;;;;19.75;32.41;101819.81;4572976;25;20418;-69
2024/04/20 03:17:19;;;;;;;;;;;;;;;19.73;32.89;101821.69;4572275;26;19938;-69
2024/04/20 03:19:21;;;;;;;;;;;;;;;19.74;33.07;101834.09;4572841;26;19939;-68
2024/04/20 03:21:23;;;;;;;;;;;;;;;19.72;32.71;101830.66;4572583;26;20031;-68
2024/04/20 03:23:27;;;;;;;;;;;;;;;19.73;32.71;101827.03;4572822;26;19939;-69
2024/04/20 03:25:32;;;;;;;;;;;;;;;19.75;32.95;101823.34;4572758;25;19927;-69
2024/04/20 03:27:34;;;;;;;;;;;;;;;19.76;32.36;101826.88;4572551;25;20297;-69
2024/04/20 03:29:36;;;;;;;;;;;;;;;19.74;32.23;101826.09;4572707;25;19934;-69
2024/04/20 03:31:38;;;;;;;;;;;;;;;19.66;32.34;101817.66;4572145;25;19932;-69
2024/04/20 03:33:41;;;;;;;;;;;;;;;19.73;32.05;101829.72;4572702;26;19931;-68
2024/04/20 03:35:44;;;;;;;;;;;;;;;19.72;31.94;101827.97;4572882;26;20266;-68
2024/04/20 03:37:46;;;;;;;;;;;;;;;19.72;32.46;101830.66;4572373;25;19936;-67
2024/04/20 03:39:48;;;;;;;;;;;;;;;19.70;32.56;101830.75;4572869;26;19935;-68
2024/04/20 03:41:50;;;;;;;;;;;;;;;19.69;32.69;101839.69;4572420;26;19931;-68
2024/04/20 03:43:52;;;;;;;;;;;;;;;19.70;31.94;101835.25;4570764;25;19981;-68
2024/04/20 03:45:54;;;;;;;;;;;;;;;19.70;32.39;101838.75;4572374;25;19943;-68
2024/04/20 03:47:56;;;;;;;;;;;;;;;19.68;31.92;101837.13;4572369;26;19935;-68
2024/04/20 03:49:58;;;;;;;;;;;;;;;19.68;32.28;101845.97;4572610;25;19928;-68
2024/04/20 03:52:00;;;;;;;;;;;;;;;19.68;31.99;101845.97;4572243;26;19936;-69
2024/04/20 03:54:02;;;;;;;;;;;;;;;19.68;32.17;101845.97;4572611;25;19952;-68
2024/04/20 03:56:04;;;;;;;;;;;;;;;19.69;31.88;101852.19;4570963;26;19942;-69
2024/04/20 03:58:06;;;;;;;;;;;;;;;19.67;31.53;101851.41;4572341;25;19938;-69
2024/04/20 04:00:11;;;;;;;;;;;;;;;19.65;32.43;101859.50;4571930;25;19935;-69
2024/04/20 04:02:14;;;;;;;;;;;;;;;19.60;32.26;101857.09;4570416;25;19931;-68
2024/04/20 04:04:16;;;;;;;;;;;;;;;19.61;31.70;101863.28;4572466;25;20223;-69
2024/04/20 04:06:17;;;;;;;;;;;;;;;19.58;31.68;101860.78;4572633;25;20430;-69
2024/04/20 04:08:19;;;;;;;;;;;;;;;19.58;31.55;101866.13;4571981;26;19939;-68
2024/04/20 04:10:21;;;;;;;;;;;;;;;19.58;31.55;101866.97;4572174;26;20026;-69
2024/04/20 04:12:28;;;;;;;;;;;;;;;19.57;32.37;101867.06;4572061;25;20023;-69
2024/04/20 04:14:30;;;;;;;;;;;;;;;19.58;31.83;101868.81;4571803;25;19933;-68
2024/04/20 04:16:32;;;;;;;;;;;;;;;19.59;31.68;101870.53;4572416;26;19935;-68
2024/04/20 04:18:34;;;;;;;;;;;;;;;19.59;31.71;101879.38;4571452;26;19942;-68
2024/04/20 04:20:35;;;;;;;;;;;;;;;19.60;32.16;101877.56;4571811;26;20003;-68
2024/04/20 04:22:37;;;;;;;;;;;;;;;19.58;31.99;101879.47;4582013;25;20015;-68
2024/04/20 04:24:39;;;;;;;;;;;;;;;19.53;31.93;101876.22;4572637;25;19940;-69
2024/04/20 04:26:41;;;;;;;;;;;;;;;19.52;31.44;101882.50;4572246;25;19943;-68
2024/04/20 04:28:43;;;;;;;;;;;;;;;19.50;31.98;101881.69;4571335;26;20352;-68
2024/04/20 04:30:45;;;;;;;;;;;;;;;19.46;32.17;101876.50;4572097;26;20408;-68
2024/04/20 04:32:46;;;;;;;;;;;;;;;19.48;31.70;101882.63;4572290;26;19995;-68
2024/04/20 04:34:50;;;;;;;;;;;;;;;19.49;31.78;101870.19;4571856;25;19939;-68
2024/04/20 04:36:52;;;;;;;;;;;;;;;19.48;32.36;101881.78;4572157;25;19946;-68
2024/04/20 04:38:57;;;;;;;;;;;;;;;19.51;31.92;101883.44;4571865;26;19927;-68
2024/04/20 04:40:58;;;;;;;;;;;;;;;19.51;31.29;101886.09;4571876;25;19931;-69
2024/04/20 04:43:00;;;;;;;;;;;;;;;19.50;32.23;101881.69;4571654;26;19938;-68
2024/04/20 04:45:02;;;;;;;;;;;;;;;19.47;32.03;101885.41;4571697;26;20377;-68
2024/04/20 04:47:07;;;;;;;;;;;;;;;19.43;31.26;101892.72;4571935;25;20024;-68
2024/04/20 04:49:09;;;;;;;;;;;;;;;19.45;32.00;101892.63;4571585;25;19935;-68
2024/04/20 04:51:11;;;;;;;;;;;;;;;19.43;31.35;101889.16;4571683;25;19942;-68
2024/04/20 04:53:13;;;;;;;;;;;;;;;19.40;31.61;101894.69;4570306;25;19934;-67
2024/04/20 04:55:15;;;;;;;;;;;;;;;19.41;31.72;101899.06;4571681;25;19927;-67
2024/04/20 04:57:17;;;;;;;;;;;;;;;19.40;31.42;101905.34;4569566;26;19942;-68
2024/04/20 04:59:21;;;;;;;;;;;;;;;19.39;32.20;101901.81;4571615;25;19932;-67
2024/04/20 05:01:22;;;;;;;;;;;;;;;19.41;32.11;101904.41;4571745;25;19938;-68
2024/04/20 05:03:24;;;;;;;;;;;;;;;19.41;31.23;101905.25;4572075;25;20290;-67
2024/04/20 05:05:26;;;;;;;;;;;;;;;19.40;31.91;101903.53;4571389;25;19931;-68
2024/04/20 05:07:28;;;;;;;;;;;;;;;19.40;31.67;101902.69;4571727;26;19937;-68
2024/04/20 05:09:33;;;;;;;;;;;;;;;19.38;32.07;101913.44;4571312;25;19931;-68
2024/04/20 05:11:34;;;;;;;;;;;;;;;19.37;32.14;101908.16;4570948;25;19931;-68
2024/04/20 05:13:36;;;;;;;;;;;;;;;19.37;32.14;101914.38;4571461;25;19942;-68
2024/04/20 05:15:39;;;;;;;;;;;;;;;19.38;31.19;101920.56;4538864;26;19934;-68
2024/04/20 05:17:41;;;;;;;;;;;;;;;19.35;31.96;101918.94;4571593;25;19928;-68
2024/04/20 05:19:44;;;;;;;;;;;;;;;19.26;31.53;101909.63;4571248;25;19989;-68
2024/04/20 05:21:46;;;;;;;;;;;;;;;19.33;31.30;101933.31;4571235;25;20572;-68
2024/04/20 05:23:48;;;;;;;;;;;;;;;19.30;31.93;101929.00;4599119;25;19935;-68
2024/04/20 05:25:49;;;;;;;;;;;;;;;19.33;31.59;101943.97;4585912;25;19932;-68
2024/04/20 05:27:51;;;;;;;;;;;;;;;19.34;31.07;101933.22;4570810;26;19953;-68
2024/04/20 05:29:53;;;;;;;;;;;;;;;19.35;32.04;101937.59;4571443;25;19935;-68
2024/04/20 05:31:55;;;;;;;;;;;;;;;19.38;31.21;101945.47;4572800;25;19942;-68
2024/04/20 05:33:57;;;;;;;;;;;;;;;19.40;31.05;101948.03;4574246;25;19935;-68
2024/04/20 05:36:05;;;;;;;;;;;;;;;19.37;31.36;101949.06;4573992;26;19935;-68
2024/04/20 05:38:07;;;;;;;;;;;;;;;19.35;31.17;101950.09;4574265;25;19934;-68
2024/04/20 05:40:09;;;;;;;;;;;;;;;19.34;31.25;101956.38;4574274;26;20003;-68
2024/04/20 05:42:11;;;;;;;;;;;;;;;19.31;31.79;101957.41;4571597;26;19927;-68
2024/04/20 05:44:13;;;;;;;;;;;;;;;19.31;31.59;101966.25;4574281;25;19942;-68
2024/04/20 05:46:15;;;;;;;;;;;;;;;19.33;31.30;101974.16;4573942;26;19942;-67
2024/04/20 05:48:17;;;;;;;;;;;;;;;19.32;31.76;101969.78;4574098;25;19933;-68
2024/04/20 05:50:18;;;;;;;;;;;;;;;19.31;31.21;101970.72;4574138;26;20283;-68
2024/04/20 05:52:20;;;;;;;;;;;;;;;19.31;30.99;101974.25;4571251;26;19927;-69
2024/04/20 05:54:22;;;;;;;;;;;;;;;19.32;31.92;101980.47;4574072;25;19931;-69
2024/04/20 05:56:24;;;;;;;;;;;;;;;19.30;31.74;101979.69;4573352;25;19935;-69
2024/04/20 05:58:25;;;;;;;;;;;;;;;19.30;31.80;101977.84;4573895;26;19935;-68
2024/04/20 06:00:27;;;;;;;;;;;;;;;19.30;31.73;101985.00;4574124;25;20372;-69
2024/04/20 06:02:31;;;;;;;;;;;;;;;19.29;31.44;101983.28;4573566;26;19943;-69
2024/04/20 06:04:33;;;;;;;;;;;;;;;19.28;31.29;101987.75;4573914;25;19953;-68
2024/04/20 06:06:35;;;;;;;;;;;;;;;19.28;31.71;101984.22;4573619;26;19935;-69
2024/04/20 06:08:36;;;;;;;;;;;;;;;19.26;31.42;101986.09;4573815;26;19927;-68
2024/04/20 06:10:38;;;;;;;;;;;;;;;19.26;31.04;101986.09;4571685;25;20368;-68
2024/04/20 06:12:40;;;;;;;;;;;;;;;19.26;31.79;101988.75;4573314;25;20339;-68
2024/04/20 06:14:42;;;;;;;;;;;;;;;19.27;31.69;101993.16;4573863;26;19935;-68
2024/04/20 06:16:43;;;;;;;;;;;;;;;19.27;31.68;102001.16;4573569;25;19935;-68
2024/04/20 06:18:45;;;;;;;;;;;;;;;19.26;31.78;101994.97;4573573;25;19933;-67
2024/04/20 06:20:51;;;;;;;;;;;;;;;19.28;31.46;102002.88;4573628;25;19927;-68
2024/04/20 06:22:53;;;;;;;;;;;;;;;19.29;31.65;101997.47;4587397;25;19930;-68
2024/04/20 06:24:57;;;;;;;;;;;;;;;19.28;31.61;102001.09;4585512;25;19938;-69
2024/04/20 06:26:59;;;;;;;;;;;;;;;19.25;31.37;101998.56;4573585;25;19934;-68
2024/04/20 06:29:02;;;;;;;;;;;;;;;19.23;31.41;101999.59;4571552;26;20008;-69
2024/04/20 06:31:04;;;;;;;;;;;;;;;19.23;31.62;102005.78;4573819;25;19935;-68
2024/04/20 06:33:06;;;;;;;;;;;;;;;19.23;30.78;102005.78;4573061;25;19931;-68
2024/04/20 06:35:08;;;;;;;;;;;;;;;19.20;31.71;102005.97;4573453;25;20279;-68
2024/04/20 06:37:11;;;;;;;;;;;;;;;19.20;31.25;102003.28;4573602;26;19958;-68
2024/04/20 06:39:16;;;;;;;;;;;;;;;19.22;31.49;102006.72;4572329;26;19938;-68
2024/04/20 06:41:18;;;;;;;;;;;;;;;19.24;30.70;102015.53;4573777;26;20282;-68
2024/04/20 06:43:20;;;;;;;;;;;;;;;19.24;31.30;102014.66;4572517;26;19932;-69
2024/04/20 06:45:21;;;;;;;;;;;;;;;19.24;31.30;102023.53;4573654;25;20293;-68
2024/04/20 06:47:23;;;;;;;;;;;;;;;19.23;30.73;102023.59;4573425;26;19935;-69
2024/04/20 06:49:25;;;;;;;;;;;;;;;19.23;31.48;102023.59;4572969;26;19931;-69
2024/04/20 06:51:28;;;;;;;;;;;;;;;19.23;31.22;102035.13;4573448;25;20004;-68
2024/04/20 06:53:30;;;;;;;;;;;;;;;19.24;30.73;102038.69;4572709;25;19942;-69
2024/04/20 06:55:32;;;;;;;;;;;;;;;19.21;30.92;102034.38;4573493;25;20275;-68
2024/04/20 06:57:37;;;;;;;;;;;;;;;19.19;31.49;102046.03;4573482;26;20380;-68
2024/04/20 06:59:39;;;;;;;;;;;;;;;19.19;30.61;102044.25;4573004;26;20429;-68
2024/04/20 07:01:40;;;;;;;;;;;;;;;19.22;30.70;102043.22;4573155;25;19946;-69
2024/04/20 07:03:43;;;;;;;;;;;;;;;19.21;31.22;102045.03;4573283;26;19936;-68
2024/04/20 07:05:54;;;;;;;;;;;;;;;19.22;31.48;102049.41;4552899;26;19931;-69
2024/04/20 07:07:55;;;;;;;;;;;;;;;19.23;31.06;102050.28;4572918;26;19935;-68
2024/04/20 07:09:57;;;;;;;;;;;;;;;19.20;31.49;102050.41;4572830;25;19928;-68
2024/04/20 07:11:59;;;;;;;;;;;;;;;19.20;30.77;102050.41;4573262;25;19935;-69
2024/04/20 07:14:01;;;;;;;;;;;;;;;19.19;30.65;102057.56;4572793;25;20034;-69
2024/04/20 07:16:03;;;;;;;;;;;;;;;19.18;31.49;102055.84;4573019;26;19950;-69
2024/04/20 07:18:06;;;;;;;;;;;;;;;19.17;30.62;102062.09;4573247;25;19935;-69
2024/04/20 07:20:08;;;;;;;;;;;;;;;19.14;30.83;102070.28;4572780;26;19935;-68
2024/04/20 07:22:15;;;;;;;;;;;;;;;19.12;30.85;102064.16;4570922;26;19935;-68
2024/04/20 07:24:17;;;;;;;;;;;;;;;19.14;30.63;102065.78;4572877;26;19943;-69
2024/04/20 07:26:19;;;;;;;;;;;;;;;19.21;30.58;102070.81;4572865;25;19931;-69
2024/04/20 07:28:21;;;;;;;;;;;;;;;19.17;31.26;102070.13;4572933;26;19949;-68
2024/04/20 07:30:24;;;;;;;;;;;;;;;19.16;30.51;102073.72;4572679;26;19942;-68
2024/04/20 07:32:25;;;;;;;;;;;;;;;19.21;31.07;102077.03;4572858;26;19935;-67
2024/04/20 07:34:29;;;;;;;;;;;;;;;19.18;30.81;102066.50;4570978;26;19943;-68
2024/04/20 07:36:31;;;;;;;;;;;;;;;19.15;31.17;102072.88;4573017;25;19939;-67
2024/04/20 07:38:33;;;;;;;;;;;;;;;19.15;30.57;102077.34;4572178;25;20373;-68
2024/04/20 07:40:35;;;;;;;;;;;;;;;19.15;30.74;102074.69;4572533;26;19931;-68
2024/04/20 07:42:37;;;;;;;;;;;;;;;19.13;31.38;102072.06;4572955;25;19943;-68
2024/04/20 07:44:39;;;;;;;;;;;;;;;19.14;31.20;102070.28;4570931;26;20262;-67
2024/04/20 07:46:43;;;;;;;;;;;;;;;19.14;30.94;102075.63;4566336;26;19931;-67
2024/04/20 07:48:47;;;;;;;;;;;;;;;19.14;30.80;102072.94;4572552;26;20003;-68
2024/04/20 07:50:48;;;;;;;;;;;;;;;19.17;30.73;102071.94;4572448;25;19931;-69
2024/04/20 07:52:50;;;;;;;;;;;;;;;19.18;31.04;102069.19;4572189;25;19935;-68
2024/04/20 07:54:52;;;;;;;;;;;;;;;19.21;30.75;102077.03;4570790;25;19935;-68
2024/04/20 07:56:54;;;;;;;;;;;;;;;19.24;30.72;102071.53;4572381;26;20050;-68
2024/04/20 07:58:56;;;;;;;;;;;;;;;19.27;30.54;102078.50;4572600;26;20007;-68
2024/04/20 08:00:58;;;;;;;;;;;;;;;19.26;31.48;102082.13;4572261;26;19943;-68
2024/04/20 08:03:00;;;;;;;;;;;;;;;19.25;30.95;102075.94;4572414;25;19936;-69
2024/04/20 08:05:02;;;;;;;;;;;;;;;19.24;30.51;102086.69;4572483;26;20029;-68
2024/04/20 08:07:04;;;;;;;;;;;;;;;19.20;30.67;102085.97;4571737;26;19931;-67
2024/04/20 08:09:06;;;;;;;;;;;;;;;19.17;30.70;102090.59;4572300;26;19939;-69
2024/04/20 08:11:07;;;;;;;;;;;;;;;19.17;30.54;102087.94;4572183;25;19938;-68
2024/04/20 08:13:09;;;;;;;;;;;;;;;19.15;30.62;102096.88;4572079;25;19934;-69
2024/04/20 08:15:11;;;;;;;;;;;;;;;19.18;31.17;102098.50;4572523;25;19927;-68
2024/04/20 08:17:13;;;;;;;;;;;;;;;19.17;30.74;102095.94;4570138;26;19935;-68
2024/04/20 08:19:15;;;;;;;;;;;;;;;19.17;30.73;102101.25;4572256;25;19927;-69
2024/04/20 08:21:16;;;;;;;;;;;;;;;19.21;30.68;102100.16;4571984;26;19927;-68
2024/04/20 08:23:18;;;;;;;;;;;;;;;19.22;31.04;102105.41;4582316;25;20292;-69
2024/04/20 08:25:20;;;;;;;;;;;;;;;19.21;31.24;102113.50;4572196;25;19932;-68
2024/04/20 08:27:22;;;;;;;;;;;;;;;19.25;30.98;102110.59;4571892;26;19988;-68
2024/04/20 08:29:24;;;;;;;;;;;;;;;19.02;30.35;102106.41;4571936;26;19950;-69
2024/04/20 08:31:26;;;;;;;;;;;;;;;19.01;31.56;102114.50;4571828;25;19935;-69
2024/04/20 08:33:28;;;;;;;;;;;;;;;19.09;31.36;102112.28;4571914;26;20324;-69
2024/04/20 08:35:29;;;;;;;;;;;;;;;19.09;31.26;102114.97;4571824;25;19942;-68
2024/04/20 08:37:34;;;;;;;;;;;;;;;19.09;31.22;102118.50;4569781;26;20012;-69
2024/04/20 08:39:39;;;;;;;;;;;;;;;19.19;30.99;102121.59;4570300;26;19942;-69
2024/04/20 08:41:50;;;;;;;;;;;;;;;19.19;31.13;102118.03;4571872;26;19950;-68
2024/04/20 08:43:52;;;;;;;;;;;;;;;19.21;31.03;102117.03;4571824;26;19946;-69
2024/04/20 08:45:56;;;;;;;;;;;;;;;19.22;31.23;102120.56;4572027;25;19935;-68
2024/04/20 08:47:58;;;;;;;;;;;;;;;18.99;30.98;102127.88;4571509;25;19939;-67
2024/04/20 08:50:01;;;;;;;;;;;;;;;19.05;30.75;102124.06;4571127;25;19927;-67
2024/04/20 08:52:03;;;;;;;;;;;;;;;19.08;31.28;102123.94;4569866;25;19931;-67
2024/04/20 08:54:05;;;;;;;;;;;;;;;19.05;31.05;102122.25;4571702;26;19935;-66
2024/04/20 08:56:08;;;;;;;;;;;;;;;19.02;30.76;102121.53;4571962;25;20271;-66
2024/04/20 08:58:09;;;;;;;;;;;;;;;18.98;31.07;102121.69;4571375;25;19927;-67
2024/04/20 09:00:12;;;;;;;;;;;;;;;18.99;30.85;102134.09;4569942;26;20014;-67
2024/04/20 09:02:17;;;;;;;;;;;;;;;18.97;31.18;102130.63;4571681;25;20368;-67
2024/04/20 09:04:18;;;;;;;;;;;;;;;18.98;31.79;102128.84;4565572;26;20350;-70
2024/04/20 09:06:24;;;;;;;;;;;;;;;18.81;31.79;102133.16;4571553;25;19931;-68
2024/04/20 09:08:26;;;;;;;;;;;;;;;18.88;31.76;102138.19;4571331;25;19934;-68
2024/04/20 09:10:27;;;;;;;;;;;;;;;18.83;31.26;102133.06;4571535;26;19938;-68
2024/04/20 09:12:30;;;;;;;;;;;;;;;18.86;31.36;102132.03;4569667;26;19942;-67
2024/04/20 09:14:32;;;;;;;;;;;;;;;18.95;31.03;102132.50;4561956;25;19931;-68
2024/04/20 09:16:36;;;;;;;;;;;;;;;18.96;31.68;102131.56;4543980;26;19935;-68
2024/04/20 09:18:39;;;;;;;;;;;;;;;18.99;32.13;102139.44;4560694;25;19935;-67
2024/04/20 09:20:41;;;;;;;;;;;;;;;18.90;32.83;102141.66;4571194;25;20003;-67
2024/04/20 09:22:43;;;;;;;;;;;;;;;18.86;32.45;102140.03;4581449;25;20002;-68
2024/04/20 09:24:45;;;;;;;;;;;;;;;18.86;32.43;102142.72;4563676;26;19939;-65
2024/04/20 09:26:50;;;;;;;;;;;;;;;18.79;32.48;102143.00;4566733;26;20300;-64
2024/04/20 09:28:59;;;;;;;;;;;;;;;18.80;32.08;102150.06;4570715;25;19932;-65
2024/04/20 09:31:03;;;;;;;;;;;;;;;18.77;32.46;102142.22;4571013;26;19935;-66
2024/04/20 09:33:09;;;;;;;;;;;;;;;18.77;32.46;102141.34;4570464;25;20288;-67
2024/04/20 09:35:11;;;;;;;;;;;;;;;18.78;32.27;102145.75;4567004;26;19931;-66
2024/04/20 09:37:13;;;;;;;;;;;;;;;18.81;31.82;102143.81;4555501;26;19931;-67
2024/04/20 09:39:15;;;;;;;;;;;;;;;18.79;32.63;102137.66;4562632;26;19932;-67
2024/04/20 09:41:17;;;;;;;;;;;;;;;18.76;32.81;102139.63;4559267;26;19936;-66
2024/04/20 09:43:21;;;;;;;;;;;;;;;18.75;32.70;102140.56;4566880;26;19943;-67
2024/04/20 09:45:24;;;;;;;;;;;;;;;18.77;32.33;102138.69;4570620;25;20013;-66
2024/04/20 09:47:28;;;;;;;;;;;;;;;18.68;32.79;102122.19;4569122;26;19932;-67
2024/04/20 09:49:30;;;;;;;;;;;;;;;18.76;31.80;102132.50;4570123;25;20284;-67
2024/04/20 09:51:36;;;;;;;;;;;;;;;18.74;32.29;102136.19;4570410;25;19939;-67
2024/04/20 09:53:39;;;;;;;;;;;;;;;18.73;32.68;102142.44;4556299;26;19935;-66
2024/04/20 09:55:45;;;;;;;;;;;;;;;18.74;32.86;102139.69;4562262;26;19993;-67
2024/04/20 09:57:51;;;;;;;;;;;;;;;18.72;31.99;102136.25;4557187;25;19928;-66
2024/04/20 09:59:55;;;;;;;;;;;;;;;18.81;31.82;102135.81;4568823;26;19932;-66
2024/04/20 10:02:00;;;;;;;;;;;;;;;18.86;31.57;102142.72;4566795;25;19931;-68
2024/04/20 10:04:03;;;;;;;;;;;;;;;18.94;32.09;102141.47;4566064;26;19931;-64
2024/04/20 10:06:07;;;;;;;;;;;;;;;19.06;32.62;102141.78;4566375;25;20302;-68
2024/04/20 10:08:13;;;;;;;;;;;;;;;19.17;32.99;102146.59;4569098;26;19938;-69
2024/04/20 10:10:15;;;;;;;;;;;;;;;19.19;31.81;102142.91;4570199;25;20379;-66
2024/04/20 10:12:18;;;;;;;;;;;;;;;19.23;32.69;102146.28;4570650;25;19931;-66
2024/04/20 10:14:20;;;;;;;;;;;;;;;19.39;32.28;102141.91;4569685;25;19932;-65
2024/04/20 10:16:22;;;;;;;;;;;;;;;19.45;31.99;102146.97;4569763;25;19927;-68
2024/04/20 10:18:24;;;;;;;;;;;;;;;19.50;32.27;102145.84;4572609;25;19997;-66
2024/04/20 10:20:36;;;;;;;;;;;;;;;19.58;31.17;102147.19;4572537;25;19935;-69
2024/04/20 10:22:39;;;;;;;;;;;;;;;19.64;31.08;102148.69;4572968;25;19977;-63
2024/04/20 10:24:51;;;;;;;;;;;;;;;19.58;30.97;102151.66;4573159;25;19931;-67
2024/04/20 10:26:56;;;;;;;;;;;;;;;19.63;30.70;102153.16;4571629;25;19943;-67
2024/04/20 10:29:08;;;;;;;;;;;;;;;19.64;31.38;102152.22;4573274;25;20301;-70